createdAt,value
2019-03-13T00:00:21.551Z,0.00
2019-03-13T00:01:23.728Z,0.00
2019-03-13T00:02:21.529Z,0.00
2019-03-13T00:03:21.519Z,0.00
2019-03-13T00:04:21.509Z,0.00
2019-03-13T00:05:21.497Z,0.00
2019-03-13T00:06:21.487Z,0.00
2019-03-13T00:07:21.495Z,0.00
2019-03-13T00:08:21.465Z,0.00
2019-03-13T00:09:21.455Z,0.00
2019-03-13T00:10:21.445Z,0.00
2019-03-13T00:11:21.433Z,0.00
2019-03-13T00:12:21.423Z,0.00
2019-03-13T00:13:21.426Z,0.00
2019-03-13T00:14:21.400Z,0.00
2019-03-13T00:15:21.391Z,0.00
2019-03-13T00:16:21.381Z,0.00
2019-03-13T00:17:21.370Z,0.00
2019-03-13T00:18:21.360Z,0.00
2019-03-13T00:19:21.365Z,0.00
2019-03-13T00:20:21.336Z,0.00
2019-03-13T00:21:21.327Z,0.00
2019-03-13T00:22:21.314Z,0.00
2019-03-13T00:23:21.302Z,0.00
2019-03-13T00:24:21.295Z,0.00
2019-03-13T00:25:21.304Z,0.00
2019-03-13T00:26:21.273Z,0.00
2019-03-13T00:27:21.268Z,0.00
2019-03-13T00:28:21.247Z,0.00
2019-03-13T00:29:21.237Z,0.00
2019-03-13T00:30:21.233Z,0.00
2019-03-13T00:31:21.234Z,0.00
2019-03-13T00:32:21.206Z,0.00
2019-03-13T00:33:21.238Z,0.00
2019-03-13T00:34:21.188Z,0.00
2019-03-13T00:35:21.172Z,0.00
2019-03-13T00:36:21.165Z,0.00
2019-03-13T00:37:21.169Z,0.00
2019-03-13T00:38:21.139Z,0.00
2019-03-13T00:39:21.133Z,0.00
2019-03-13T00:40:21.125Z,0.00
2019-03-13T00:41:21.109Z,0.00
2019-03-13T00:42:21.102Z,0.00
2019-03-13T00:43:21.104Z,0.00
2019-03-13T00:44:21.078Z,0.00
2019-03-13T00:45:21.066Z,0.00
2019-03-13T00:46:21.056Z,0.00
2019-03-13T00:47:21.045Z,0.00
2019-03-13T00:48:21.031Z,0.00
2019-03-13T00:49:21.037Z,0.00
2019-03-13T00:50:21.015Z,0.00
2019-03-13T00:51:20.999Z,0.00
2019-03-13T00:52:20.989Z,0.00
2019-03-13T00:53:20.980Z,0.00
2019-03-13T00:54:20.970Z,0.00
2019-03-13T00:55:20.978Z,0.00
2019-03-13T00:56:20.948Z,0.00
2019-03-13T00:57:20.945Z,0.00
2019-03-13T00:58:20.925Z,0.00
2019-03-13T00:59:20.922Z,0.00
2019-03-13T01:00:20.906Z,0.00
2019-03-13T01:01:20.919Z,0.00
2019-03-13T01:02:20.884Z,0.00
2019-03-13T01:03:20.875Z,0.00
2019-03-13T01:04:20.868Z,0.00
2019-03-13T01:05:20.852Z,0.00
2019-03-13T01:06:20.839Z,0.00
2019-03-13T01:07:20.839Z,0.00
2019-03-13T01:08:20.820Z,0.00
2019-03-13T01:09:20.808Z,0.00
2019-03-13T01:10:20.798Z,0.00
2019-03-13T01:11:20.797Z,0.00
2019-03-13T01:12:20.772Z,0.00
2019-03-13T01:13:20.780Z,0.00
2019-03-13T01:14:20.753Z,0.00
2019-03-13T01:15:20.743Z,0.00
2019-03-13T01:16:20.735Z,0.00
2019-03-13T01:17:20.721Z,0.00
2019-03-13T01:18:20.711Z,0.00
2019-03-13T01:19:20.717Z,0.00
2019-03-13T01:20:20.686Z,0.00
2019-03-13T01:21:20.680Z,0.00
2019-03-13T01:22:20.670Z,0.00
2019-03-13T01:23:20.657Z,0.00
2019-03-13T01:24:20.648Z,0.00
2019-03-13T01:25:20.650Z,0.00
2019-03-13T01:26:20.625Z,0.00
2019-03-13T01:27:20.616Z,0.00
2019-03-13T01:28:20.610Z,0.00
2019-03-13T01:29:20.593Z,0.00
2019-03-13T01:30:20.583Z,0.00
2019-03-13T01:31:20.591Z,0.00
2019-03-13T01:32:20.569Z,0.00
2019-03-13T01:33:20.548Z,0.00
2019-03-13T01:34:20.539Z,0.00
2019-03-13T01:35:20.529Z,0.00
2019-03-13T01:36:20.516Z,0.00
2019-03-13T01:37:20.606Z,0.00
2019-03-13T01:38:20.498Z,0.00
2019-03-13T01:39:20.484Z,0.00
2019-03-13T01:40:20.479Z,0.00
2019-03-13T01:41:20.462Z,0.00
2019-03-13T01:42:20.455Z,0.00
2019-03-13T01:43:20.474Z,0.00
2019-03-13T01:44:20.432Z,0.00
2019-03-13T01:45:20.421Z,0.00
2019-03-13T01:46:20.412Z,0.00
2019-03-13T01:47:20.399Z,0.00
2019-03-13T01:48:20.392Z,0.00
2019-03-13T01:49:20.393Z,0.00
2019-03-13T01:50:20.369Z,0.00
2019-03-13T01:51:20.354Z,0.00
2019-03-13T01:52:20.348Z,0.00
2019-03-13T01:53:20.336Z,0.00
2019-03-13T01:54:20.329Z,0.00
2019-03-13T01:55:20.334Z,0.00
2019-03-13T01:56:20.303Z,0.00
2019-03-13T01:57:20.293Z,0.00
2019-03-13T01:58:20.281Z,0.00
2019-03-13T01:59:20.271Z,0.00
2019-03-13T02:00:20.263Z,0.00
2019-03-13T02:01:20.351Z,0.00
2019-03-13T02:02:20.239Z,0.00
2019-03-13T02:03:20.228Z,0.00
2019-03-13T02:04:20.217Z,0.00
2019-03-13T02:05:20.209Z,0.00
2019-03-13T02:06:20.199Z,0.00
2019-03-13T02:07:20.204Z,0.00
2019-03-13T02:08:20.175Z,0.00
2019-03-13T02:09:20.163Z,0.00
2019-03-13T02:10:20.153Z,0.00
2019-03-13T02:11:20.143Z,0.00
2019-03-13T02:12:20.135Z,0.00
2019-03-13T02:13:20.137Z,0.00
2019-03-13T02:14:20.192Z,0.00
2019-03-13T02:15:20.099Z,0.00
2019-03-13T02:16:20.089Z,0.00
2019-03-13T02:17:20.078Z,0.00
2019-03-13T02:18:20.067Z,0.00
2019-03-13T02:19:20.073Z,0.00
2019-03-13T02:20:20.047Z,0.00
2019-03-13T02:21:20.035Z,0.00
2019-03-13T02:22:20.024Z,0.00
2019-03-13T02:23:20.014Z,0.00
2019-03-13T02:24:20.004Z,0.00
2019-03-13T02:25:20.009Z,0.00
2019-03-13T02:26:19.982Z,0.00
2019-03-13T02:27:19.973Z,0.00
2019-03-13T02:28:19.960Z,0.00
2019-03-13T02:29:19.950Z,0.00
2019-03-13T02:30:20.088Z,0.00
2019-03-13T02:31:20.033Z,0.00
2019-03-13T02:32:19.921Z,0.00
2019-03-13T02:33:19.910Z,0.00
2019-03-13T02:34:19.901Z,0.00
2019-03-13T02:35:19.924Z,0.00
2019-03-13T02:36:19.874Z,0.00
2019-03-13T02:37:19.881Z,0.00
2019-03-13T02:38:19.857Z,0.00
2019-03-13T02:39:19.841Z,0.00
2019-03-13T02:40:19.827Z,0.00
2019-03-13T02:41:19.824Z,0.00
2019-03-13T02:42:19.811Z,0.00
2019-03-13T02:43:19.818Z,0.00
2019-03-13T02:44:19.790Z,0.00
2019-03-13T02:45:19.779Z,0.00
2019-03-13T02:46:19.767Z,0.00
2019-03-13T02:47:19.788Z,0.00
2019-03-13T02:48:19.747Z,0.00
2019-03-13T02:49:19.751Z,0.00
2019-03-13T02:50:19.726Z,0.00
2019-03-13T02:51:19.717Z,0.00
2019-03-13T02:52:19.703Z,0.00
2019-03-13T02:53:19.693Z,0.00
2019-03-13T02:54:19.683Z,0.00
2019-03-13T02:55:19.687Z,0.00
2019-03-13T02:56:19.662Z,0.00
2019-03-13T02:57:19.652Z,0.00
2019-03-13T02:58:19.677Z,0.00
2019-03-13T02:59:19.628Z,0.00
2019-03-13T03:00:19.623Z,0.00
2019-03-13T03:01:19.632Z,0.00
2019-03-13T03:02:19.600Z,0.00
2019-03-13T03:03:19.594Z,0.00
2019-03-13T03:04:19.576Z,0.00
2019-03-13T03:05:19.564Z,0.00
2019-03-13T03:06:19.560Z,0.00
2019-03-13T03:07:19.561Z,0.00
2019-03-13T03:08:19.532Z,0.00
2019-03-13T03:09:19.553Z,0.00
2019-03-13T03:10:19.513Z,0.00
2019-03-13T03:11:19.504Z,0.00
2019-03-13T03:12:19.490Z,0.00
2019-03-13T03:13:19.493Z,0.00
2019-03-13T03:14:19.478Z,0.00
2019-03-13T03:15:19.458Z,0.00
2019-03-13T03:16:19.449Z,0.00
2019-03-13T03:17:19.437Z,0.00
2019-03-13T03:18:19.426Z,0.00
2019-03-13T03:19:19.430Z,0.00
2019-03-13T03:20:19.411Z,0.00
2019-03-13T03:21:19.399Z,0.00
2019-03-13T03:22:19.383Z,0.00
2019-03-13T03:23:19.374Z,0.00
2019-03-13T03:24:19.365Z,0.00
2019-03-13T03:25:19.368Z,0.00
2019-03-13T03:26:19.343Z,0.00
2019-03-13T03:27:19.335Z,0.00
2019-03-13T03:28:26.404Z,0.00
2019-03-13T03:29:19.360Z,0.00
2019-03-13T03:30:19.324Z,0.00
2019-03-13T03:31:19.327Z,0.00
2019-03-13T03:32:19.282Z,0.00
2019-03-13T03:33:19.280Z,0.00
2019-03-13T03:34:19.338Z,0.00
2019-03-13T03:35:19.282Z,0.00
2019-03-13T03:36:19.239Z,0.00
2019-03-13T03:37:19.275Z,0.00
2019-03-13T03:38:19.232Z,0.00
2019-03-13T03:39:19.227Z,0.00
2019-03-13T03:40:22.363Z,0.00
2019-03-13T03:41:19.180Z,0.00
2019-03-13T03:42:19.175Z,0.00
2019-03-13T03:43:19.197Z,0.00
2019-03-13T03:44:19.175Z,0.00
2019-03-13T03:45:19.154Z,0.00
2019-03-13T03:46:19.127Z,0.00
2019-03-13T03:47:19.114Z,0.00
2019-03-13T03:48:19.111Z,0.00
2019-03-13T03:49:19.125Z,0.00
2019-03-13T03:50:19.106Z,0.00
2019-03-13T03:51:19.086Z,0.00
2019-03-13T03:52:19.072Z,0.00
2019-03-13T03:53:19.060Z,0.00
2019-03-13T03:54:19.058Z,0.00
2019-03-13T03:55:19.063Z,0.00
2019-03-13T03:56:19.196Z,0.00
2019-03-13T03:57:19.011Z,0.00
2019-03-13T03:58:18.999Z,0.00
2019-03-13T03:59:19.006Z,0.00
2019-03-13T04:00:18.999Z,0.00
2019-03-13T04:01:19.001Z,0.00
2019-03-13T04:02:18.984Z,0.00
2019-03-13T04:03:18.945Z,0.00
2019-03-13T04:04:18.939Z,0.00
2019-03-13T04:05:18.942Z,0.00
2019-03-13T04:06:18.924Z,0.00
2019-03-13T04:07:19.013Z,0.00
2019-03-13T04:08:18.907Z,0.00
2019-03-13T04:09:18.894Z,0.00
2019-03-13T04:10:18.873Z,0.00
2019-03-13T04:11:18.858Z,0.00
2019-03-13T04:12:18.857Z,0.00
2019-03-13T04:13:18.882Z,0.00
2019-03-13T04:14:18.825Z,0.00
2019-03-13T04:15:18.905Z,0.00
2019-03-13T04:16:18.807Z,0.00
2019-03-13T04:17:18.799Z,0.00
2019-03-13T04:18:18.789Z,0.00
2019-03-13T04:19:19.266Z,0.00
2019-03-13T04:20:18.776Z,0.00
2019-03-13T04:21:18.772Z,0.00
2019-03-13T04:22:18.796Z,0.00
2019-03-13T04:23:18.734Z,0.00
2019-03-13T04:24:18.710Z,0.00
2019-03-13T04:25:18.729Z,0.00
2019-03-13T04:26:18.699Z,0.00
2019-03-13T04:27:18.687Z,0.00
2019-03-13T04:28:18.691Z,0.00
2019-03-13T04:29:18.664Z,0.00
2019-03-13T04:30:18.664Z,0.00
2019-03-13T04:31:18.664Z,0.00
2019-03-13T04:32:18.635Z,0.00
2019-03-13T04:33:18.632Z,0.00
2019-03-13T04:34:18.628Z,0.00
2019-03-13T04:35:18.614Z,0.00
2019-03-13T04:36:18.588Z,0.00
2019-03-13T04:37:18.597Z,0.00
2019-03-13T04:38:18.567Z,0.00
2019-03-13T04:39:18.560Z,0.00
2019-03-13T04:40:18.542Z,0.00
2019-03-13T04:41:18.544Z,0.00
2019-03-13T04:42:18.527Z,0.00
2019-03-13T04:43:18.544Z,0.00
2019-03-13T04:44:18.525Z,0.00
2019-03-13T04:45:18.492Z,0.00
2019-03-13T04:46:18.479Z,0.00
2019-03-13T04:47:18.469Z,0.00
2019-03-13T04:48:18.472Z,0.00
2019-03-13T04:49:18.510Z,0.00
2019-03-13T04:50:18.444Z,0.00
2019-03-13T04:51:18.459Z,0.00
2019-03-13T04:52:18.427Z,0.00
2019-03-13T04:53:18.410Z,0.00
2019-03-13T04:54:18.490Z,0.00
2019-03-13T04:55:18.406Z,0.00
2019-03-13T04:56:18.373Z,0.00
2019-03-13T04:57:18.429Z,0.00
2019-03-13T04:58:18.383Z,0.00
2019-03-13T04:59:18.341Z,0.00
2019-03-13T05:00:18.335Z,0.00
2019-03-13T05:01:18.430Z,0.00
2019-03-13T05:02:18.316Z,0.00
2019-03-13T05:03:18.313Z,0.00
2019-03-13T05:04:18.287Z,0.00
2019-03-13T05:05:18.277Z,0.00
2019-03-13T05:06:18.271Z,0.00
2019-03-13T05:07:18.273Z,0.00
2019-03-13T05:08:18.252Z,0.00
2019-03-13T05:09:18.239Z,0.00
2019-03-13T05:10:18.245Z,0.00
2019-03-13T05:11:18.220Z,0.00
2019-03-13T05:12:18.227Z,0.00
2019-03-13T05:13:18.216Z,0.00
2019-03-13T05:14:18.198Z,0.00
2019-03-13T05:15:18.186Z,0.00
2019-03-13T05:16:18.182Z,0.00
2019-03-13T05:17:18.162Z,0.00
2019-03-13T05:18:18.140Z,0.00
2019-03-13T05:19:18.169Z,4.00
2019-03-13T05:20:18.121Z,4.00
2019-03-13T05:21:18.108Z,4.00
2019-03-13T05:22:18.104Z,4.00
2019-03-13T05:23:18.089Z,4.00
2019-03-13T05:24:18.086Z,8.00
2019-03-13T05:25:19.365Z,4.00
2019-03-13T05:26:18.058Z,8.00
2019-03-13T05:27:18.068Z,12.00
2019-03-13T05:28:18.055Z,12.00
2019-03-13T05:29:18.025Z,16.00
2019-03-13T05:30:18.019Z,20.00
2019-03-13T05:31:18.028Z,24.00
2019-03-13T05:32:18.023Z,28.00
2019-03-13T05:33:17.987Z,36.00
2019-03-13T05:34:17.969Z,44.00
2019-03-13T05:35:17.962Z,56.00
2019-03-13T05:36:17.950Z,64.00
2019-03-13T05:37:17.972Z,80.00
2019-03-13T05:38:17.933Z,96.00
2019-03-13T05:39:17.924Z,108.00
2019-03-13T05:40:17.982Z,124.00
2019-03-13T05:41:17.897Z,140.00
2019-03-13T05:42:17.896Z,160.00
2019-03-13T05:43:17.898Z,180.00
2019-03-13T05:44:17.865Z,196.00
2019-03-13T05:45:17.862Z,204.00
2019-03-13T05:46:17.843Z,212.00
2019-03-13T05:47:17.833Z,236.00
2019-03-13T05:48:17.829Z,264.00
2019-03-13T05:49:17.845Z,260.00
2019-03-13T05:50:17.812Z,272.00
2019-03-13T05:51:17.796Z,296.00
2019-03-13T05:52:17.781Z,344.00
2019-03-13T05:53:17.767Z,392.00
2019-03-13T05:54:17.761Z,420.00
2019-03-13T05:55:17.761Z,428.00
2019-03-13T05:56:17.745Z,420.00
2019-03-13T05:57:17.751Z,512.00
2019-03-13T05:58:17.813Z,616.00
2019-03-13T05:59:17.730Z,696.00
2019-03-13T06:00:17.704Z,692.00
2019-03-13T06:01:17.719Z,636.00
2019-03-13T06:02:17.674Z,632.00
2019-03-13T06:03:17.694Z,688.00
2019-03-13T06:04:17.652Z,732.00
2019-03-13T06:05:17.712Z,756.00
2019-03-13T06:06:17.678Z,780.00
2019-03-13T06:07:17.674Z,944.00
2019-03-13T06:08:18.677Z,1084.00
2019-03-13T06:09:17.612Z,1352.00
2019-03-13T06:10:17.590Z,1620.00
2019-03-13T06:11:17.583Z,1820.00
2019-03-13T06:12:17.567Z,1884.00
2019-03-13T06:13:17.606Z,1952.00
2019-03-13T06:14:17.594Z,1960.00
2019-03-13T06:15:17.575Z,1792.00
2019-03-13T06:16:17.526Z,1556.00
2019-03-13T06:17:17.516Z,1424.00
2019-03-13T06:18:17.509Z,1464.00
2019-03-13T06:19:17.501Z,1396.00
2019-03-13T06:20:17.500Z,1228.00
2019-03-13T06:21:17.471Z,1124.00
2019-03-13T06:22:17.468Z,1060.00
2019-03-13T06:23:17.456Z,1172.00
2019-03-13T06:24:17.442Z,1300.00
2019-03-13T06:25:17.446Z,1328.00
2019-03-13T06:26:17.441Z,1288.00
2019-03-13T06:27:17.416Z,1292.00
2019-03-13T06:28:17.406Z,1256.00
2019-03-13T06:29:17.396Z,1336.00
2019-03-13T06:30:17.377Z,1488.00
2019-03-13T06:31:17.400Z,1612.00
2019-03-13T06:32:17.361Z,1572.00
2019-03-13T06:33:17.347Z,1368.00
2019-03-13T06:34:17.343Z,1196.00
2019-03-13T06:35:17.332Z,1236.00
2019-03-13T06:36:17.339Z,1392.00
2019-03-13T06:37:17.322Z,1424.00
2019-03-13T06:38:17.364Z,1344.00
2019-03-13T06:39:17.285Z,1284.00
2019-03-13T06:40:17.277Z,1496.00
2019-03-13T06:41:17.278Z,1788.00
2019-03-13T06:42:17.262Z,1692.00
2019-03-13T06:43:17.305Z,1276.00
2019-03-13T06:44:17.229Z,1216.00
2019-03-13T06:45:17.213Z,1244.00
2019-03-13T06:46:17.233Z,1084.00
2019-03-13T06:47:17.197Z,1016.00
2019-03-13T06:48:17.181Z,1000.00
2019-03-13T06:49:17.197Z,1160.00
2019-03-13T06:50:17.161Z,1300.00
2019-03-13T06:51:17.162Z,1664.00
2019-03-13T06:52:17.147Z,1840.00
2019-03-13T06:53:17.136Z,1916.00
2019-03-13T06:54:17.123Z,2328.00
2019-03-13T06:55:17.127Z,2956.00
2019-03-13T06:56:17.097Z,3192.00
2019-03-13T06:57:17.088Z,2952.00
2019-03-13T06:58:17.085Z,2780.00
2019-03-13T06:59:17.065Z,2628.00
2019-03-13T07:00:17.057Z,2856.00
2019-03-13T07:01:17.062Z,3280.00
2019-03-13T07:02:17.053Z,3336.00
2019-03-13T07:03:17.029Z,3732.00
2019-03-13T07:04:17.014Z,3868.00
2019-03-13T07:05:17.009Z,3816.00
2019-03-13T07:06:16.995Z,4124.00
2019-03-13T07:07:16.998Z,4468.00
2019-03-13T07:08:16.985Z,5028.00
2019-03-13T07:09:16.986Z,5168.00
2019-03-13T07:10:16.949Z,5676.00
2019-03-13T07:11:16.947Z,5708.00
2019-03-13T07:12:16.933Z,4964.00
2019-03-13T07:13:16.943Z,4512.00
2019-03-13T07:14:16.905Z,4304.00
2019-03-13T07:15:16.905Z,4284.00
2019-03-13T07:16:16.951Z,4372.00
2019-03-13T07:17:16.904Z,4736.00
2019-03-13T07:18:16.864Z,4804.00
2019-03-13T07:19:16.880Z,4980.00
2019-03-13T07:20:16.844Z,5360.00
2019-03-13T07:21:16.905Z,5836.00
2019-03-13T07:22:16.824Z,6576.00
2019-03-13T07:23:16.831Z,7704.00
2019-03-13T07:24:16.812Z,9632.00
2019-03-13T07:25:16.811Z,28480.00
2019-03-13T07:26:16.779Z,21568.00
2019-03-13T07:27:16.766Z,27552.00
2019-03-13T07:28:16.761Z,27360.00
2019-03-13T07:29:16.780Z,27936.00
2019-03-13T07:30:16.738Z,30624.00
2019-03-13T07:31:16.747Z,34272.00
2019-03-13T07:32:16.709Z,34336.00
2019-03-13T07:33:16.706Z,32384.00
2019-03-13T07:34:16.693Z,31648.00
2019-03-13T07:35:16.693Z,32608.00
2019-03-13T07:36:16.674Z,34496.00
2019-03-13T07:37:16.680Z,28320.00
2019-03-13T07:38:16.664Z,32384.00
2019-03-13T07:39:16.645Z,13020.00
2019-03-13T07:40:16.626Z,15648.00
2019-03-13T07:41:16.632Z,16000.00
2019-03-13T07:42:16.610Z,17600.00
2019-03-13T07:43:16.612Z,25216.00
2019-03-13T07:44:16.587Z,23296.00
2019-03-13T07:45:16.577Z,23328.00
2019-03-13T07:46:16.562Z,13560.00
2019-03-13T07:47:16.565Z,18816.00
2019-03-13T07:48:16.588Z,21952.00
2019-03-13T07:49:16.566Z,22272.00
2019-03-13T07:50:16.523Z,19232.00
2019-03-13T07:51:16.507Z,27040.00
2019-03-13T07:52:16.497Z,28960.00
2019-03-13T07:53:16.488Z,30912.00
2019-03-13T07:54:16.533Z,36928.00
2019-03-13T07:55:16.498Z,42304.00
2019-03-13T07:56:16.455Z,37440.00
2019-03-13T07:57:16.445Z,42688.00
2019-03-13T07:58:16.430Z,16512.00
2019-03-13T07:59:16.423Z,17152.00
2019-03-13T08:00:16.427Z,18688.00
2019-03-13T08:01:16.422Z,17248.00
2019-03-13T08:02:16.401Z,13088.00
2019-03-13T08:03:16.377Z,12412.00
2019-03-13T08:04:16.368Z,12712.00
2019-03-13T08:05:16.363Z,12764.00
2019-03-13T08:06:16.345Z,13552.00
2019-03-13T08:07:16.356Z,14812.00
2019-03-13T08:08:16.336Z,14644.00
2019-03-13T08:09:16.321Z,12156.00
2019-03-13T08:10:16.300Z,10932.00
2019-03-13T08:11:16.291Z,11296.00
2019-03-13T08:12:16.281Z,12304.00
2019-03-13T08:13:16.327Z,45344.00
2019-03-13T08:14:16.258Z,13800.00
2019-03-13T08:15:16.246Z,15416.00
2019-03-13T08:16:16.253Z,12992.00
2019-03-13T08:17:16.236Z,11680.00
2019-03-13T08:18:16.218Z,12232.00
2019-03-13T08:19:16.228Z,10472.00
2019-03-13T08:20:16.223Z,9484.00
2019-03-13T08:21:16.182Z,8676.00
2019-03-13T08:22:16.167Z,7956.00
2019-03-13T08:23:16.161Z,7820.00
2019-03-13T08:24:16.161Z,8408.00
2019-03-13T08:25:16.306Z,8624.00
2019-03-13T08:26:16.128Z,9440.00
2019-03-13T08:27:16.115Z,9252.00
2019-03-13T08:28:16.150Z,10032.00
2019-03-13T08:29:16.094Z,9328.00
2019-03-13T08:30:16.085Z,9836.00
2019-03-13T08:31:16.084Z,9568.00
2019-03-13T08:32:16.096Z,8800.00
2019-03-13T08:33:16.050Z,11508.00
2019-03-13T08:34:16.038Z,23104.00
2019-03-13T08:35:16.035Z,54432.00
2019-03-13T08:36:16.026Z,36288.00
2019-03-13T08:37:16.032Z,54112.00
2019-03-13T08:38:15.995Z,55456.00
2019-03-13T08:39:15.991Z,55360.00
2019-03-13T08:40:15.978Z,55264.00
2019-03-13T08:41:15.968Z,56576.00
2019-03-13T08:42:15.952Z,59104.00
2019-03-13T08:43:15.965Z,60064.00
2019-03-13T08:44:15.955Z,59104.00
2019-03-13T08:45:15.956Z,60192.00
2019-03-13T08:46:15.908Z,61120.00
2019-03-13T08:47:15.898Z,63008.00
2019-03-13T08:48:15.893Z,65120.00
2019-03-13T08:49:15.888Z,64608.00
2019-03-13T08:50:15.868Z,64480.00
2019-03-13T08:51:15.868Z,65792.00
2019-03-13T08:52:15.840Z,67104.00
2019-03-13T08:53:15.836Z,66272.00
2019-03-13T08:54:15.843Z,64480.00
2019-03-13T08:55:15.824Z,65408.00
2019-03-13T08:56:15.796Z,69408.00
2019-03-13T08:57:15.789Z,37088.00
2019-03-13T08:58:15.776Z,72096.00
2019-03-13T08:59:15.770Z,74720.00
2019-03-13T09:00:15.755Z,75744.00
2019-03-13T09:01:15.779Z,77472.00
2019-03-13T09:02:15.731Z,68640.00
2019-03-13T09:03:15.719Z,83616.00
2019-03-13T09:04:15.710Z,88448.00
2019-03-13T09:05:15.697Z,88064.00
2019-03-13T09:06:15.690Z,77472.00
2019-03-13T09:07:15.700Z,16320.00
2019-03-13T09:08:15.692Z,75136.00
2019-03-13T09:09:15.667Z,47776.00
2019-03-13T09:10:15.667Z,70848.00
2019-03-13T09:11:15.673Z,72096.00
2019-03-13T09:12:15.627Z,73376.00
2019-03-13T09:13:15.627Z,69792.00
2019-03-13T09:14:15.611Z,68736.00
2019-03-13T09:15:15.598Z,68256.00
2019-03-13T09:16:15.579Z,67936.00
2019-03-13T09:17:15.582Z,74144.00
2019-03-13T09:18:15.590Z,70720.00
2019-03-13T09:19:15.601Z,78144.00
2019-03-13T09:20:15.547Z,85344.00
2019-03-13T09:21:15.521Z,88832.00
2019-03-13T09:22:15.509Z,32320.00
2019-03-13T09:23:15.518Z,25056.00
2019-03-13T09:24:15.503Z,26688.00
2019-03-13T09:25:15.502Z,18720.00
2019-03-13T09:26:15.473Z,21600.00
2019-03-13T09:27:15.470Z,15368.00
2019-03-13T09:28:15.454Z,16448.00
2019-03-13T09:30:08.004Z,16512.00
2019-03-13T09:31:08.012Z,66368.00
2019-03-13T09:32:07.985Z,24000.00
2019-03-13T09:33:07.975Z,19648.00
2019-03-13T09:34:07.964Z,20128.00
2019-03-13T09:35:07.950Z,15504.00
2019-03-13T09:36:07.946Z,75360.00
2019-03-13T09:37:07.953Z,17728.00
2019-03-13T09:38:07.919Z,41312.00
2019-03-13T09:39:07.921Z,16672.00
2019-03-13T09:40:07.898Z,28224.00
2019-03-13T09:41:07.886Z,26176.00
2019-03-13T09:42:07.876Z,79648.00
2019-03-13T09:43:07.883Z,23168.00
2019-03-13T09:44:07.864Z,23136.00
2019-03-13T09:45:07.847Z,45056.00
2019-03-13T09:46:07.831Z,18976.00
2019-03-13T09:47:07.821Z,18880.00
2019-03-13T09:48:07.812Z,18624.00
2019-03-13T09:49:07.814Z,17824.00
2019-03-13T09:50:07.788Z,14376.00
2019-03-13T09:51:07.778Z,14240.00
2019-03-13T09:52:07.768Z,13780.00
2019-03-13T09:53:07.755Z,13876.00
2019-03-13T09:54:07.746Z,13260.00
2019-03-13T09:55:07.755Z,13680.00
2019-03-13T09:56:07.724Z,14600.00
2019-03-13T09:57:07.717Z,16640.00
2019-03-13T09:58:07.704Z,17344.00
2019-03-13T09:59:07.699Z,15020.00
2019-03-13T10:00:07.689Z,49344.00
2019-03-13T10:01:07.686Z,19904.00
2019-03-13T10:02:07.663Z,67136.00
2019-03-13T10:03:07.647Z,73184.00
2019-03-13T10:04:07.647Z,33952.00
2019-03-13T10:05:07.628Z,49792.00
2019-03-13T10:06:07.618Z,36576.00
2019-03-13T10:07:07.624Z,84768.00
2019-03-13T10:08:07.595Z,24480.00
2019-03-13T10:09:07.587Z,22944.00
2019-03-13T10:10:07.664Z,48704.00
2019-03-13T10:11:07.564Z,28896.00
2019-03-13T10:12:07.553Z,87680.00
2019-03-13T10:13:07.559Z,36448.00
2019-03-13T10:14:07.528Z,35776.00
2019-03-13T10:15:07.521Z,28192.00
2019-03-13T10:16:07.510Z,30208.00
2019-03-13T10:17:10.887Z,30304.00
2019-03-13T10:18:07.493Z,25920.00
2019-03-13T10:19:07.494Z,26080.00
2019-03-13T10:20:07.466Z,22688.00
2019-03-13T10:21:07.461Z,15972.00
2019-03-13T10:22:07.445Z,13108.00
2019-03-13T10:23:07.441Z,13396.00
2019-03-13T10:24:07.421Z,14324.00
2019-03-13T10:25:07.442Z,12384.00
2019-03-13T10:26:07.402Z,11404.00
2019-03-13T10:27:07.392Z,13272.00
2019-03-13T10:28:07.382Z,15928.00
2019-03-13T10:29:07.370Z,16640.00
2019-03-13T10:30:07.366Z,15432.00
2019-03-13T10:31:07.370Z,16672.00
2019-03-13T10:32:07.342Z,19872.00
2019-03-13T10:33:07.330Z,26144.00
2019-03-13T10:34:07.317Z,24320.00
2019-03-13T10:35:07.309Z,29472.00
2019-03-13T10:36:07.300Z,28960.00
2019-03-13T10:37:07.303Z,25728.00
2019-03-13T10:38:13.862Z,29664.00
2019-03-13T10:39:08.260Z,28256.00
2019-03-13T10:40:07.251Z,73120.00
2019-03-13T10:41:07.242Z,82560.00
2019-03-13T10:42:07.232Z,24672.00
2019-03-13T10:43:07.242Z,92800.00
2019-03-13T10:44:07.226Z,97152.00
2019-03-13T10:45:07.203Z,54528.00
2019-03-13T10:46:07.184Z,98112.00
2019-03-13T10:47:07.178Z,88832.00
2019-03-13T10:48:07.174Z,19456.00
2019-03-13T10:49:07.171Z,27040.00
2019-03-13T10:50:07.146Z,102880.00
2019-03-13T10:51:07.133Z,101088.00
2019-03-13T10:52:07.121Z,56512.00
2019-03-13T10:53:07.116Z,47392.00
2019-03-13T10:54:07.101Z,54688.00
2019-03-13T10:55:07.126Z,33280.00
2019-03-13T10:56:07.082Z,28160.00
2019-03-13T10:57:07.069Z,29888.00
2019-03-13T10:58:07.059Z,18976.00
2019-03-13T10:59:07.052Z,16160.00
2019-03-13T11:00:07.033Z,16352.00
2019-03-13T11:01:07.043Z,16096.00
2019-03-13T11:02:07.014Z,15616.00
2019-03-13T11:03:07.004Z,14536.00
2019-03-13T11:04:06.995Z,13700.00
2019-03-13T11:05:06.982Z,13128.00
2019-03-13T11:06:06.972Z,12564.00
2019-03-13T11:07:06.981Z,14144.00
2019-03-13T11:08:06.955Z,49888.00
2019-03-13T11:09:06.940Z,37088.00
2019-03-13T11:10:06.927Z,41760.00
2019-03-13T11:11:06.923Z,42976.00
2019-03-13T11:12:06.915Z,43072.00
2019-03-13T11:13:06.915Z,59968.00
2019-03-13T11:14:15.642Z,72160.00
2019-03-13T11:15:07.872Z,84992.00
2019-03-13T11:16:06.863Z,14288.00
2019-03-13T11:17:06.855Z,15700.00
2019-03-13T11:18:06.845Z,12916.00
2019-03-13T11:19:06.848Z,12064.00
2019-03-13T11:20:06.845Z,12520.00
2019-03-13T11:21:06.811Z,92864.00
2019-03-13T11:22:06.797Z,92096.00
2019-03-13T11:23:06.788Z,12560.00
2019-03-13T11:24:06.778Z,13108.00
2019-03-13T11:25:06.789Z,73632.00
2019-03-13T11:26:06.756Z,40352.00
2019-03-13T11:27:06.749Z,12284.00
2019-03-13T11:28:06.733Z,10292.00
2019-03-13T11:29:06.723Z,77760.00
2019-03-13T11:30:06.718Z,90496.00
2019-03-13T11:31:06.723Z,90048.00
2019-03-13T11:32:06.695Z,36032.00
2019-03-13T11:33:06.679Z,88672.00
2019-03-13T11:34:06.673Z,34688.00
2019-03-13T11:35:06.657Z,14708.00
2019-03-13T11:36:06.647Z,15120.00
2019-03-13T11:37:06.743Z,88352.00
2019-03-13T11:38:06.627Z,84256.00
2019-03-13T11:39:06.616Z,87136.00
2019-03-13T11:40:06.606Z,35648.00
2019-03-13T11:41:06.594Z,48544.00
2019-03-13T11:42:06.583Z,14616.00
2019-03-13T11:43:06.586Z,9656.00
2019-03-13T11:44:06.638Z,8488.00
2019-03-13T11:45:06.552Z,82464.00
2019-03-13T11:46:06.539Z,82528.00
2019-03-13T11:47:06.529Z,83008.00
2019-03-13T11:48:06.522Z,83968.00
2019-03-13T11:49:06.616Z,83264.00
2019-03-13T11:50:06.494Z,83456.00
2019-03-13T11:51:06.487Z,74592.00
2019-03-13T11:52:06.483Z,85536.00
2019-03-13T11:53:06.469Z,86752.00
2019-03-13T11:54:06.456Z,88800.00
2019-03-13T11:55:06.464Z,93024.00
2019-03-13T11:56:06.433Z,94624.00
2019-03-13T11:57:06.420Z,20416.00
2019-03-13T11:58:06.411Z,85760.00
2019-03-13T11:59:06.400Z,83264.00
2019-03-13T12:00:06.485Z,79712.00
2019-03-13T12:01:06.399Z,77440.00
2019-03-13T12:02:06.369Z,73888.00
2019-03-13T12:03:06.358Z,71232.00
2019-03-13T12:04:06.347Z,75968.00
2019-03-13T12:05:06.335Z,79552.00
2019-03-13T12:06:06.324Z,82240.00
2019-03-13T12:07:06.331Z,83168.00
2019-03-13T12:08:06.303Z,80736.00
2019-03-13T12:09:06.292Z,70400.00
2019-03-13T12:10:06.279Z,73760.00
2019-03-13T12:11:06.270Z,39680.00
2019-03-13T12:12:06.260Z,78368.00
2019-03-13T12:13:06.347Z,77856.00
2019-03-13T12:14:06.238Z,73920.00
2019-03-13T12:15:06.225Z,81344.00
2019-03-13T12:16:06.216Z,87392.00
2019-03-13T12:17:06.209Z,84416.00
2019-03-13T12:18:06.197Z,78304.00
2019-03-13T12:19:06.201Z,79648.00
2019-03-13T12:20:06.174Z,79072.00
2019-03-13T12:21:06.165Z,78336.00
2019-03-13T12:22:06.152Z,75488.00
2019-03-13T12:23:06.142Z,75392.00
2019-03-13T12:24:06.134Z,27744.00
2019-03-13T12:25:06.139Z,52864.00
2019-03-13T12:26:06.110Z,35936.00
2019-03-13T12:27:06.102Z,24160.00
2019-03-13T12:28:06.087Z,18560.00
2019-03-13T12:29:06.079Z,12212.00